Time;durP1;ratioP1;P1;durP2;ratioP2;P2;SDS_P1;SDS_P2;PMS_P1;PMS_P2;Temp;Humidity;BMP_temperature;BMP_pressure;BME280_temperature;BME280_humidity;BME280_pressure;Samples;Min_cycle;Max_cycle;Signal;HPM_P1;HPM_P2
2023/07/30 00:01:10;;;;;;;3.40;1.58;;;;;;;;;;5055931;28;20052;-41
2023/07/30 00:03:36;;;;;;;2.08;1.13;;;;;;;;;;5047105;28;20313;-51
2023/07/30 00:06:03;;;;;;;3.78;1.20;;;;;;;;;;5056694;28;20035;-52
2023/07/30 00:08:30;;;;;;;2.10;1.02;;;;;;;;;;5057134;28;20096;-44
2023/07/30 00:11:00;;;;;;;3.15;1.00;;;;;;;;;;5047364;28;20075;-48
2023/07/30 00:13:26;;;;;;;3.28;1.00;;;;;;;;;;5046748;28;20035;-46
2023/07/30 00:15:53;;;;;;;3.33;1.00;;;;;;;;;;5047828;28;20042;-50
2023/07/30 00:18:20;;;;;;;3.65;0.90;;;;;;;;;;5055165;28;20040;-58
2023/07/30 00:20:46;;;;;;;2.53;1.05;;;;;;;;;;5055158;28;20182;-47
2023/07/30 00:23:13;;;;;;;2.15;0.80;;;;;;;;;;5055257;28;20037;-42
2023/07/30 00:25:40;;;;;;;3.60;1.00;;;;;;;;;;5047117;28;20312;-46
2023/07/30 00:28:06;;;;;;;4.65;1.10;;;;;;;;;;5046794;28;20045;-42
2023/07/30 00:30:33;;;;;;;2.50;0.80;;;;;;;;;;5046028;28;20017;-48
2023/07/30 00:33:00;;;;;;;4.25;0.90;;;;;;;;;;5063213;28;20070;-47
2023/07/30 00:35:27;;;;;;;2.00;0.88;;;;;;;;;;5055181;28;20210;-53
2023/07/30 00:37:53;;;;;;;2.35;0.60;;;;;;;;;;5055071;28;20151;-44
2023/07/30 00:40:20;;;;;;;2.75;0.60;;;;;;;;;;5046780;28;20045;-48
2023/07/30 00:42:47;;;;;;;4.00;0.80;;;;;;;;;;5046423;28;20037;-43
2023/07/30 00:45:13;;;;;;;2.42;0.73;;;;;;;;;;5056258;28;20309;-42
2023/07/30 00:47:41;;;;;;;4.05;0.80;;;;;;;;;;5050565;28;20313;-48
2023/07/30 00:50:08;;;;;;;3.17;0.80;;;;;;;;;;5057918;28;20035;-44
2023/07/30 00:52:35;;;;;;;3.70;0.70;;;;;;;;;;5045831;28;20260;-45
2023/07/30 00:55:07;;;;;;;2.55;0.82;;;;;;;;;;5046277;28;20222;-48
2023/07/30 00:57:35;;;;;;;2.33;0.70;;;;;;;;;;5055461;28;20032;-43
2023/07/30 01:00:04;;;;;;;2.97;0.90;;;;;;;;;;5045650;28;20028;-45
2023/07/30 01:02:32;;;;;;;1.88;0.77;;;;;;;;;;5048076;28;20210;-42
2023/07/30 01:05:01;;;;;;;3.67;0.82;;;;;;;;;;5057328;28;20080;-48
2023/07/30 01:07:27;;;;;;;3.70;0.70;;;;;;;;;;5071039;28;20025;-42
2023/07/30 01:09:54;;;;;;;2.95;1.00;;;;;;;;;;5083436;28;20024;-49
2023/07/30 01:12:25;;;;;;;2.65;0.90;;;;;;;;;;5057537;28;20030;-45
2023/07/30 01:14:52;;;;;;;3.15;1.02;;;;;;;;;;5053354;28;20233;-45
2023/07/30 01:17:19;;;;;;;0.95;0.40;;;;;;;;;;5045392;28;20035;-44
2023/07/30 01:19:46;;;;;;;2.10;0.75;;;;;;;;;;5056239;28;20323;-44
2023/07/30 01:22:21;;;;;;;2.08;0.80;;;;;;;;;;5069262;28;20064;-44
2023/07/30 01:24:48;;;;;;;2.42;0.70;;;;;;;;;;5068700;28;20017;-46
2023/07/30 01:27:26;;;;;;;2.70;0.77;;;;;;;;;;5056869;28;20033;-52
2023/07/30 01:29:57;;;;;;;6.25;0.85;;;;;;;;;;5051376;28;20045;-46
2023/07/30 01:32:28;;;;;;;2.97;0.90;;;;;;;;;;5063289;28;20259;-46
2023/07/30 01:35:02;;;;;;;1.25;0.65;;;;;;;;;;5060562;28;20024;-52
2023/07/30 01:37:30;;;;;;;2.47;0.68;;;;;;;;;;5059175;28;20321;-45
2023/07/30 01:39:57;;;;;;;1.33;0.70;;;;;;;;;;5059844;28;20315;-44
2023/07/30 01:42:30;;;;;;;1.92;0.85;;;;;;;;;;5049210;28;20025;-44
2023/07/30 01:45:03;;;;;;;0.77;0.57;;;;;;;;;;5059246;28;20056;-48
2023/07/30 01:47:29;;;;;;;3.55;0.85;;;;;;;;;;5050769;28;20037;-48
2023/07/30 01:49:56;;;;;;;6.03;0.70;;;;;;;;;;5048345;28;20060;-48
2023/07/30 01:52:23;;;;;;;4.28;0.82;;;;;;;;;;5064148;28;20036;-44
2023/07/30 01:54:49;;;;;;;2.08;0.63;;;;;;;;;;5045182;28;20306;-43
2023/07/30 01:57:16;;;;;;;1.15;0.75;;;;;;;;;;5048533;28;20045;-45
2023/07/30 01:59:42;;;;;;;0.70;0.70;;;;;;;;;;5055032;28;20123;-44
2023/07/30 02:02:12;;;;;;;1.60;0.70;;;;;;;;;;5058276;28;20088;-43
2023/07/30 02:04:41;;;;;;;3.70;1.20;;;;;;;;;;5080347;28;20074;-48
2023/07/30 02:07:08;;;;;;;2.47;1.95;;;;;;;;;;5084680;28;20347;-51
2023/07/30 02:09:35;;;;;;;3.17;1.30;;;;;;;;;;5083320;28;20036;-47
2023/07/30 02:12:01;;;;;;;2.80;1.45;;;;;;;;;;5083835;28;20038;-48
2023/07/30 02:14:28;;;;;;;1.23;1.10;;;;;;;;;;5084779;28;20039;-48
2023/07/30 02:16:55;;;;;;;2.05;0.98;;;;;;;;;;5066003;28;20421;-45
2023/07/30 02:19:21;;;;;;;1.20;0.70;;;;;;;;;;5064309;28;20037;-47
2023/07/30 02:21:48;;;;;;;1.23;0.70;;;;;;;;;;5069953;28;20025;-43
2023/07/30 02:24:28;;;;;;;1.55;0.60;;;;;;;;;;5065277;28;20079;-47
2023/07/30 02:26:55;;;;;;;1.60;0.60;;;;;;;;;;5069982;28;20037;-41
2023/07/30 02:29:22;;;;;;;1.98;0.73;;;;;;;;;;5064671;28;20323;-48
2023/07/30 02:31:48;;;;;;;1.42;0.60;;;;;;;;;;5063909;28;20234;-52
2023/07/30 02:34:15;;;;;;;3.67;0.70;;;;;;;;;;5052706;28;20078;-47
2023/07/30 02:36:42;;;;;;;1.13;0.60;;;;;;;;;;5050777;28;20218;-44
2023/07/30 02:39:08;;;;;;;4.35;0.50;;;;;;;;;;5061584;28;20033;-47
2023/07/30 02:41:35;;;;;;;2.05;0.63;;;;;;;;;;5053864;28;20075;-44
2023/07/30 02:44:02;;;;;;;1.30;0.60;;;;;;;;;;5048597;28;20103;-44
2023/07/30 02:46:28;;;;;;;2.47;0.65;;;;;;;;;;5055453;28;20033;-44
2023/07/30 02:48:55;;;;;;;2.53;0.70;;;;;;;;;;5064154;28;20348;-45
2023/07/30 02:51:23;;;;;;;1.33;0.63;;;;;;;;;;5063892;28;20036;-48
2023/07/30 02:53:53;;;;;;;2.58;0.60;;;;;;;;;;5062803;28;20025;-43
2023/07/30 02:56:20;;;;;;;10.50;1.05;;;;;;;;;;5063600;28;20082;-45
2023/07/30 02:58:46;;;;;;;2.92;0.68;;;;;;;;;;5056916;28;20027;-46
2023/07/30 03:01:13;;;;;;;3.80;0.60;;;;;;;;;;5047468;28;20099;-47
2023/07/30 03:03:39;;;;;;;1.75;0.60;;;;;;;;;;5044181;28;20017;-48
2023/07/30 03:06:06;;;;;;;3.25;0.63;;;;;;;;;;5043601;28;20045;-42
2023/07/30 03:08:33;;;;;;;1.88;0.68;;;;;;;;;;5043877;28;20061;-49
2023/07/30 03:11:00;;;;;;;2.83;0.70;;;;;;;;;;5044403;28;20028;-42
2023/07/30 03:13:28;;;;;;;3.53;0.52;;;;;;;;;;5048439;28;20033;-46
2023/07/30 03:15:54;;;;;;;2.92;0.65;;;;;;;;;;5050280;28;20112;-47
2023/07/30 03:18:21;;;;;;;3.38;0.82;;;;;;;;;;5043773;28;20352;-42
2023/07/30 03:20:48;;;;;;;16.52;1.52;;;;;;;;;;5044363;28;20026;-45
2023/07/30 03:23:14;;;;;;;5.55;0.90;;;;;;;;;;5043792;28;20029;-42
2023/07/30 03:25:41;;;;;;;3.45;1.20;;;;;;;;;;5044347;28;20026;-52
2023/07/30 03:28:08;;;;;;;3.70;0.75;;;;;;;;;;5043821;28;20029;-45
2023/07/30 03:30:34;;;;;;;5.35;0.85;;;;;;;;;;5045513;28;20309;-43
2023/07/30 03:33:01;;;;;;;3.60;0.68;;;;;;;;;;5052287;28;20021;-44
2023/07/30 03:35:28;;;;;;;2.13;0.55;;;;;;;;;;5054582;28;20221;-43
2023/07/30 03:37:54;;;;;;;4.25;0.90;;;;;;;;;;5048923;28;20087;-45
2023/07/30 03:40:23;;;;;;;4.40;0.90;;;;;;;;;;5053490;28;20029;-47
2023/07/30 03:42:50;;;;;;;4.55;1.02;;;;;;;;;;5061192;28;20049;-48
2023/07/30 03:45:17;;;;;;;3.47;0.70;;;;;;;;;;5049697;28;20084;-44
2023/07/30 03:47:44;;;;;;;2.53;0.52;;;;;;;;;;5043641;28;20033;-44
2023/07/30 03:50:10;;;;;;;4.75;0.70;;;;;;;;;;5044059;28;20048;-43
2023/07/30 03:52:37;;;;;;;3.88;0.80;;;;;;;;;;5043077;28;20309;-45
2023/07/30 03:55:04;;;;;;;5.65;0.90;;;;;;;;;;5046720;28;20037;-47
2023/07/30 03:57:30;;;;;;;8.15;1.00;;;;;;;;;;5067891;28;20059;-44
2023/07/30 03:59:57;;;;;;;2.90;0.73;;;;;;;;;;5075564;28;20035;-49
2023/07/30 04:02:24;;;;;;;2.97;0.90;;;;;;;;;;5069077;28;20295;-44
2023/07/30 04:04:50;;;;;;;2.38;1.00;;;28.70;99.90;;;;;;5063639;28;20084;-42
2023/07/30 04:07:17;;;;;;;1.92;1.17;;;28.50;99.90;;;;;;5066832;28;20104;-46
2023/07/30 04:09:43;;;;;;;3.30;1.20;;;28.40;99.90;;;;;;5067145;28;20024;-49
2023/07/30 04:12:10;;;;;;;3.25;1.23;;;28.40;99.90;;;;;;5067050;28;20029;-45
2023/07/30 04:14:36;;;;;;;3.65;1.30;;;28.40;99.90;;;;;;5066743;28;20035;-45
2023/07/30 04:17:03;;;;;;;2.42;1.20;;;28.40;99.90;;;;;;5066756;28;20058;-49
2023/07/30 04:19:30;;;;;;;3.40;1.40;;;28.40;99.90;;;;;;5066797;28;20025;-48
2023/07/30 04:21:56;;;;;;;3.03;1.23;;;28.30;99.90;;;;;;5062880;28;20029;-50
2023/07/30 04:24:23;;;;;;;8.25;1.63;;;28.30;99.90;;;;;;5055756;28;20089;-48
2023/07/30 04:26:50;;;;;;;4.93;1.20;;;28.30;99.90;;;;;;5046816;28;20029;-46
2023/07/30 04:29:16;;;;;;;5.32;1.40;;;28.30;99.90;;;;;;5046519;28;20079;-43
2023/07/30 04:31:43;;;;;;;6.55;1.50;;;28.30;99.90;;;;;;5046905;28;20320;-47
2023/07/30 04:34:09;;;;;;;1.88;1.30;;;28.30;99.90;;;;;;5046626;28;20029;-47
2023/07/30 04:36:36;;;;;;;12.60;1.30;;;28.30;99.90;;;;;;5046388;28;20268;-52
2023/07/30 04:39:02;;;;;;;6.07;1.60;;;28.30;99.90;;;;;;5046343;28;20115;-46
2023/07/30 04:41:29;;;;;;;4.15;1.50;;;28.30;99.90;;;;;;5046332;28;20290;-47
2023/07/30 04:43:56;;;;;;;6.45;1.48;;;28.30;99.90;;;;;;5046627;28;20100;-48
2023/07/30 04:46:23;;;;;;;5.70;1.73;;;28.30;99.90;;;;;;5046453;28;20212;-45
2023/07/30 04:48:49;;;;;;;4.57;1.60;;;28.30;99.90;;;;;;5046174;28;20029;-45
2023/07/30 04:51:16;;;;;;;6.18;1.85;;;28.30;99.90;;;;;;5046205;28;20039;-46
2023/07/30 04:53:42;;;;;;;5.82;1.65;;;28.30;99.90;;;;;;5045957;28;20061;-47
2023/07/30 04:56:10;;;;;;;4.28;1.58;;;;;;;;;;5046120;28;20045;-50
2023/07/30 04:58:38;;;;;;;5.30;1.73;;;28.40;99.90;;;;;;5046124;28;20202;-46
2023/07/30 05:01:05;;;;;;;4.82;1.70;;;28.30;99.90;;;;;;5045742;28;20018;-44
2023/07/30 05:03:31;;;;;;;5.97;1.80;;;;;;;;;;5045918;28;20081;-50
2023/07/30 05:05:58;;;;;;;3.00;1.70;;;;;;;;;;5047665;28;20033;-47
2023/07/30 05:08:25;;;;;;;4.55;1.60;;;;;;;;;;5054462;28;20029;-44
2023/07/30 05:10:51;;;;;;;5.75;1.67;;;28.40;99.90;;;;;;5045698;28;20018;-44
2023/07/30 05:13:18;;;;;;;2.50;1.38;;;;;;;;;;5045223;28;20033;-53
2023/07/30 05:15:44;;;;;;;3.22;1.45;;;28.20;99.90;;;;;;5045442;28;20044;-44
2023/07/30 05:18:13;;;;;;;6.18;1.73;;;28.30;99.90;;;;;;5044879;28;20040;-47
2023/07/30 05:20:40;;;;;;;4.95;1.77;;;28.10;99.90;;;;;;5045624;28;20340;-46
2023/07/30 05:23:06;;;;;;;10.60;2.30;;;28.20;99.90;;;;;;5045376;28;20052;-44
2023/07/30 05:25:33;;;;;;;5.68;1.77;;;28.10;99.90;;;;;;5045437;28;20032;-44
2023/07/30 05:28:00;;;;;;;5.53;1.85;;;28.10;99.90;;;;;;5045818;28;20037;-43
2023/07/30 05:30:26;;;;;;;6.90;2.15;;;28.20;99.90;;;;;;5045267;28;20111;-45
2023/07/30 05:32:53;;;;;;;7.85;2.47;;;28.10;99.90;;;;;;5045724;28;20033;-43
2023/07/30 05:35:19;;;;;;;5.55;2.10;;;28.20;99.90;;;;;;5045390;28;20048;-44
2023/07/30 05:37:46;;;;;;;5.43;1.73;;;28.20;99.90;;;;;;5045465;28;20027;-45
2023/07/30 05:40:12;;;;;;;5.15;1.80;;;28.20;99.90;;;;;;5045186;28;20272;-51
2023/07/30 05:42:39;;;;;;;4.18;1.60;;;28.10;99.90;;;;;;5063278;28;20101;-43
2023/07/30 05:45:07;;;;;;;5.97;1.60;;;28.10;99.90;;;;;;5064593;28;20049;-44
2023/07/30 05:47:33;;;;;;;3.70;1.40;;;28.20;99.90;;;;;;5064956;28;20202;-43
2023/07/30 05:50:00;;;;;;;4.63;1.10;;;;;;;;;;5064989;28;20347;-47
2023/07/30 05:52:29;;;;;;;4.43;1.10;;;;;;;;;;5065046;28;20032;-44
2023/07/30 05:54:56;;;;;;;4.70;1.25;;;;;;;;;;5064750;28;20025;-50
2023/07/30 05:57:25;;;;;;;5.18;1.30;;;;;;;;;;5051215;28;20037;-46
2023/07/30 05:59:51;;;;;;;4.70;1.10;;;;;;;;;;5052823;28;20054;-42
2023/07/30 06:02:18;;;;;;;3.13;1.17;;;;;;;;;;5055807;28;20013;-45
2023/07/30 06:04:45;;;;;;;3.33;0.95;;;;;;;;;;5051980;28;20032;-48
2023/07/30 06:07:11;;;;;;;2.97;1.00;;;;;;;;;;5057142;28;20025;-52
2023/07/30 06:09:38;;;;;;;4.72;1.13;;;;;;;;;;5050675;28;20033;-44
2023/07/30 06:12:05;;;;;;;5.28;1.23;;;;;;;;;;5055190;28;20044;-43
2023/07/30 06:14:31;;;;;;;1.80;1.00;;;;;;;;;;5054664;28;20037;-50
2023/07/30 06:16:58;;;;;;;8.20;1.70;;;;;;;;;;5057552;28;20036;-45
2023/07/30 06:19:26;;;;;;;3.30;1.10;;;;;;;;;;5055156;28;20032;-45
2023/07/30 06:21:53;;;;;;;11.90;1.20;;;;;;;;;;5049624;28;20016;-43
2023/07/30 06:24:19;;;;;;;3.20;1.20;;;;;;;;;;5050904;28;20041;-43
2023/07/30 06:26:46;;;;;;;3.75;1.00;;;;;;;;;;5055096;28;20044;-43
2023/07/30 06:29:12;;;;;;;5.13;1.40;;;;;;;;;;5051056;28;20233;-51
2023/07/30 06:31:39;;;;;;;3.78;1.15;;;;;;;;;;5054547;28;20043;-50
2023/07/30 06:34:06;;;;;;;6.30;1.30;;;;;;;;;;5051133;28;20043;-47
2023/07/30 06:36:32;;;;;;;6.70;1.15;;;;;;;;;;5051630;28;20025;-47
2023/07/30 06:38:59;;;;;;;7.68;1.10;;;;;;;;;;5054939;28;20123;-44
2023/07/30 06:41:26;;;;;;;4.43;1.27;;;;;;;;;;5051496;28;20021;-53
2023/07/30 06:43:52;;;;;;;5.55;1.20;;;;;;;;;;5053474;28;20039;-51
2023/07/30 06:46:19;;;;;;;3.95;1.30;;;;;;;;;;5049256;28;20048;-45
2023/07/30 06:48:45;;;;;;;5.38;1.40;;;;;;;;;;5056057;28;20069;-54
2023/07/30 06:51:13;;;;;;;23.75;2.40;;;;;;;;;;5050347;28;20041;-46
2023/07/30 06:54:05;;;;;;;6.03;1.40;;;;;;;;;;5051134;28;20121;-48
2023/07/30 06:56:31;;;;;;;3.28;1.17;;;;;;;;;;5055509;28;20033;-42
2023/07/30 06:58:58;;;;;;;8.18;1.52;;;;;;;;;;5056271;28;20068;-43
2023/07/30 07:01:25;;;;;;;7.95;1.70;;;;;;;;;;5064048;28;20040;-44
2023/07/30 07:03:51;;;;;;;6.32;1.50;;;;;;;;;;5061648;28;20051;-43
2023/07/30 07:06:18;;;;;;;2.97;1.38;;;;;;;;;;5052122;28;20414;-43
2023/07/30 07:08:44;;;;;;;27.88;1.45;;;;;;;;;;5049014;28;20020;-44
2023/07/30 07:11:11;;;;;;;3.53;1.20;;;;;;;;;;5054954;28;20048;-50
2023/07/30 07:13:38;;;;;;;4.75;1.08;;;;;;;;;;5060207;28;20032;-49
2023/07/30 07:16:04;;;;;;;5.25;1.48;;;;;;;;;;5053285;28;20029;-43
2023/07/30 07:18:31;;;;;;;6.78;1.42;;;;;;;;;;5058699;28;20037;-45
2023/07/30 07:20:58;;;;;;;3.53;1.35;;;;;;;;;;5043531;28;20367;-50
2023/07/30 07:23:24;;;;;;;4.03;1.20;;;;;;;;;;5043738;28;20025;-51
2023/07/30 07:25:52;;;;;;;5.28;1.40;;;;;;;;;;5043642;28;20025;-47
2023/07/30 07:28:19;;;;;;;6.47;1.30;;;;;;;;;;5043495;28;20041;-45
2023/07/30 07:30:46;;;;;;;6.90;1.17;;;;;;;;;;5043441;28;20241;-46
2023/07/30 07:33:13;;;;;;;4.45;1.10;;;;;;;;;;5048049;28;20108;-45
2023/07/30 07:35:40;;;;;;;5.13;1.20;;;;;;;;;;5055101;28;20039;-46
2023/07/30 07:38:06;;;;;;;4.15;1.10;;;;;;;;;;5052204;28;20025;-42
2023/07/30 07:40:39;;;;;;;5.38;1.10;;;;;;;;;;5051333;28;20066;-55
2023/07/30 07:43:06;;;;;;;4.05;1.40;;;;;;;;;;5058295;28;20037;-48
2023/07/30 07:45:33;;;;;;;4.32;1.20;;;;;;;;;;5050278;28;20230;-46
2023/07/30 07:47:59;;;;;;;5.15;1.17;;;;;;;;;;5057428;28;20025;-48
2023/07/30 07:50:26;;;;;;;4.50;1.20;;;;;;;;;;5058525;28;20048;-47
2023/07/30 07:52:53;;;;;;;3.78;0.90;;;;;;;;;;5060121;28;20040;-43
2023/07/30 07:55:19;;;;;;;5.18;1.17;;;;;;;;;;5059354;28;20028;-43
2023/07/30 07:57:46;;;;;;;2.55;1.10;;;;;;;;;;5055064;28;20325;-44
2023/07/30 08:00:13;;;;;;;4.22;0.73;;;;;;;;;;5053179;28;20071;-43
2023/07/30 08:02:39;;;;;;;6.00;0.95;;;;;;;;;;5060523;28;20033;-46
2023/07/30 08:05:07;;;;;;;4.13;0.95;;;;;;;;;;5046848;28;20225;-48
2023/07/30 08:07:33;;;;;;;2.15;0.70;;;;;;;;;;5047355;28;20037;-47
2023/07/30 08:10:00;;;;;;;5.35;0.93;;;;;;;;;;5051993;28;20420;-47
2023/07/30 08:12:27;;;;;;;3.75;0.85;;;;;;;;;;5053416;28;20040;-45
2023/07/30 08:14:55;;;;;;;4.47;0.95;;;;;;;;;;5060206;28;20039;-47
2023/07/30 08:17:22;;;;;;;5.50;0.75;;;;;;;;;;5048855;28;20022;-48
2023/07/30 08:19:49;;;;;;;3.10;0.60;;;;;;;;;;5060045;28;20040;-43
2023/07/30 08:22:15;;;;;;;3.75;0.70;;;;;;;;;;5053248;28;20055;-46
2023/07/30 08:24:42;;;;;;;8.98;0.80;;;;;;;;;;5053407;28;20037;-49
2023/07/30 08:27:09;;;;;;;4.85;0.80;;;;;;;;;;5062288;28;20036;-46
2023/07/30 08:29:35;;;;;;;5.43;0.90;;;;;;;;;;5050027;28;20083;-47
2023/07/30 08:32:02;;;;;;;5.85;0.73;;;;;;;;;;5054522;28;20061;-47
2023/07/30 08:34:28;;;;;;;3.55;0.70;;;;;;;;;;5054254;28;20041;-43
2023/07/30 08:36:55;;;;;;;4.65;0.77;;;;;;;;;;5054463;28;20036;-48
2023/07/30 08:39:22;;;;;;;8.65;1.02;;;;;;;;;;5054676;28;20033;-44
2023/07/30 08:41:48;;;;;;;3.85;0.57;;;;;;;;;;5053557;28;20056;-51
2023/07/30 08:44:15;;;;;;;4.05;0.50;;;;;;;;;;5056690;28;20060;-45
2023/07/30 08:46:42;;;;;;;4.85;0.65;;;;;;;;;;5053704;28;20033;-50
2023/07/30 08:49:08;;;;;;;2.30;0.88;;;;;;;;;;5052749;28;20033;-52
2023/07/30 08:51:40;;;;;;;2.88;0.75;;;;;;;;;;5058154;28;20071;-42
2023/07/30 08:54:06;;;;;;;5.87;0.87;;;;;;;;;;5051838;28;20025;-50
2023/07/30 08:56:33;;;;;;;5.57;0.90;;;;;;;;;;5054800;28;20259;-45
2023/07/30 08:59:01;;;;;;;5.38;0.90;;;;;;;;;;5054378;28;20442;-42
2023/07/30 09:01:34;;;;;;;8.38;0.93;;;;;;;;;;5051459;28;20260;-42
2023/07/30 09:04:00;;;;;;;4.50;1.00;;;;;;;;;;5055077;28;20217;-41
2023/07/30 09:06:28;;;;;;;5.78;0.88;;;;;;;;;;5059693;28;20041;-46
2023/07/30 09:08:55;;;;;;;5.13;0.90;;;;;;;;;;5046026;28;20043;-49
2023/07/30 09:11:26;;;;;;;4.53;0.80;;;;;;;;;;5051398;28;20029;-48
2023/07/30 09:13:55;;;;;;;7.90;1.20;;;;;;;;;;5058414;28;20308;-45
2023/07/30 09:16:25;;;;;;;4.97;1.23;;;;;;;;;;5045725;28;20061;-49
2023/07/30 09:18:53;;;;;;;3.80;0.82;;;;;;;;;;5045762;28;20031;-44
2023/07/30 09:21:20;;;;;;;4.88;1.05;;;;;;;;;;5045665;28;20025;-43
2023/07/30 09:23:47;;;;;;;5.63;1.10;;;;;;;;;;5046856;28;20033;-45
2023/07/30 09:26:14;;;;;;;5.40;1.00;;;;;;;;;;5057629;28;20045;-44
2023/07/30 09:28:41;;;;;;;6.22;1.13;;;;;;;;;;5059532;28;20028;-43
2023/07/30 09:31:08;;;;;;;3.95;0.93;;;;;;;;;;5047568;28;20356;-45
2023/07/30 09:33:35;;;;;;;5.00;0.60;;;;;;;;;;5045282;28;20071;-42
2023/07/30 09:36:03;;;;;;;6.40;0.70;;;;;;;;;;5045242;28;20022;-46
2023/07/30 09:38:32;;;;;;;3.00;0.80;;;;;;;;;;5045394;28;20037;-44
2023/07/30 09:41:03;;;;;;;5.85;0.80;;;;;;;;;;5045087;28;20033;-46
2023/07/30 09:43:36;;;;;;;3.92;0.70;;;;;;;;;;5044968;28;20241;-45
2023/07/30 09:46:03;;;;;;;3.35;0.80;;;;;;;;;;5044898;28;20025;-49
2023/07/30 09:48:34;;;;;;;4.25;0.60;;;;;;;;;;5045251;28;20290;-47
2023/07/30 09:51:05;;;;;;;4.07;0.82;;;;;;;;;;5045032;28;20041;-45
2023/07/30 09:53:35;;;;;;;6.57;1.23;;;;;;;;;;5044972;28;20346;-43
2023/07/30 09:56:07;;;;;;;6.63;0.68;;;;;;;;;;5044774;28;20037;-45
2023/07/30 09:58:36;;;;;;;6.50;0.77;;;;;;;;;;5045074;28;20033;-42
2023/07/30 10:01:04;;;;;;;6.53;0.80;;;;;;;;;;5044629;28;20053;-46
2023/07/30 10:03:33;;;;;;;3.95;0.68;;;;;;;;;;5049679;28;20301;-41
2023/07/30 10:06:04;;;;;;;5.55;0.60;;;;;;;;;;5059844;28;20186;-42
2023/07/30 10:08:32;;;;;;;7.30;0.80;;;;;;;;;;5052143;28;20040;-44
2023/07/30 10:11:00;;;;;;;2.97;0.85;;;;;;;;;;5054179;28;20084;-45
2023/07/30 10:13:28;;;;;;;9.77;0.88;;;;;;;;;;5051799;28;20033;-47
2023/07/30 10:15:58;;;;;;;4.43;0.98;;;;;;;;;;5053356;28;20041;-44
2023/07/30 10:18:26;;;;;;;8.82;0.80;;;;;;;;;;5045986;28;20022;-48
2023/07/30 10:20:57;;;;;;;1.30;0.70;;;;;;;;;;5049761;28;20029;-44
2023/07/30 10:23:28;;;;;;;6.57;1.10;;;;;;;;;;5053234;28;20033;-45
2023/07/30 10:25:56;;;;;;;5.18;0.90;;;;;;;;;;5059024;28;20221;-42
2023/07/30 10:28:37;;;;;;;5.63;1.00;;;;;;;;;;5044034;28;20037;-45
2023/07/30 10:31:08;;;;;;;10.48;1.30;;;;;;;;;;5046860;28;20096;-44
2023/07/30 10:33:53;;;;;;;6.00;1.30;;;;;;;;;;5053501;28;20044;-47
2023/07/30 10:36:33;;;;;;;7.05;1.48;;;;;;;;;;5056497;28;20036;-55
2023/07/30 10:39:20;;;;;;;6.93;1.50;;;;;;;;;;5063762;28;20049;-53
2023/07/30 10:41:49;;;;;;;7.00;1.60;;;;;;;;;;5060966;28;20095;-57
2023/07/30 10:44:19;;;;;;;11.68;2.15;;;;;;;;;;5084023;28;20056;-52
2023/07/30 10:46:46;;;;;;;7.78;1.80;;;;;;;;;;5076005;28;20400;-52
2023/07/30 10:49:13;;;;;;;8.15;1.50;;;;;;;;;;5071025;28;20036;-53
2023/07/30 10:51:40;;;;;;;6.00;1.80;;;;;;;;;;5078341;28;20025;-52
2023/07/30 10:54:10;;;;;;;11.60;1.80;;;;;;;;;;5064227;28;20017;-54
2023/07/30 10:56:37;;;;;;;5.20;1.98;;;;;;;;;;5070714;28;20037;-52
2023/07/30 10:59:05;;;;;;;4.57;1.50;;;;;;;;;;5073475;28;20021;-52
2023/07/30 11:01:32;;;;;;;6.43;1.90;;;;;;;;;;5063977;28;20017;-52
2023/07/30 11:03:59;;;;;;;7.13;2.92;;;;;;;;;;5063590;28;20029;-52
2023/07/30 11:06:26;;;;;;;6.28;3.55;;;;;;;;;;5063829;28;20026;-52
2023/07/30 11:08:53;;;;;;;6.57;4.15;;;;;;;;;;5076186;28;20020;-51
2023/07/30 11:11:20;;;;;;;10.15;4.55;;;;;;;;;;5077614;28;20099;-42
2023/07/30 11:13:47;;;;;;;9.05;4.22;;;;;;;;;;5064012;28;20032;-43
2023/07/30 11:16:15;;;;;;;6.72;4.20;;;;;;;;;;5078769;28;20059;-44
2023/07/30 11:18:42;;;;;;;8.27;3.80;;;;;;;;;;5088315;28;20028;-42
2023/07/30 11:21:09;;;;;;;7.63;3.38;;;;;;;;;;5088155;28;20343;-42
2023/07/30 11:23:37;;;;;;;6.53;2.85;;;;;;;;;;5088266;28;20070;-44
2023/07/30 11:26:05;;;;;;;9.50;3.00;;;;;;;;;;5087932;28;20378;-43
2023/07/30 11:28:35;;;;;;;4.93;2.45;;;;;;;;;;5088309;28;20319;-42
2023/07/30 11:31:03;;;;;;;7.75;2.28;;;;;;;;;;5072216;28;20032;-44
2023/07/30 11:33:30;;;;;;;5.53;2.25;;;;;;;;;;5067767;28;20032;-54
2023/07/30 11:35:57;;;;;;;6.55;2.30;;;;;;;;;;5067639;28;20093;-45
2023/07/30 11:38:25;;;;;;;5.15;2.03;;;;;;;;;;5067737;28;20025;-48
2023/07/30 11:40:53;;;;;;;8.25;2.97;;;;;;;;;;5067519;28;20070;-50
2023/07/30 11:43:21;;;;;;;7.60;3.90;;;;;;;;;;5067388;28;20036;-54
2023/07/30 11:45:48;;;;;;;10.35;3.72;;;;;;;;;;5067467;28;20028;-45
2023/07/30 11:48:15;;;;;;;4.75;3.00;;;;;;;;;;5067424;28;20052;-44
2023/07/30 11:50:45;;;;;;;6.15;3.13;;;;;;;;;;5067531;28;20024;-45
2023/07/30 11:53:12;;;;;;;6.43;2.97;;;;;;;;;;5067551;28;20021;-44
2023/07/30 11:55:39;;;;;;;7.35;2.58;;;;;;;;;;5067043;28;20386;-44
2023/07/30 11:58:06;;;;;;;6.40;2.35;;;;;;;;;;5067081;28;20028;-47
2023/07/30 12:00:33;;;;;;;4.93;2.30;;;;;;;;;;5078663;28;20028;-48
2023/07/30 12:03:04;;;;;;;5.75;2.53;;;;;;;;;;5086912;28;20367;-47
2023/07/30 12:05:34;;;;;;;4.78;2.28;;;;;;;;;;5087030;28;20021;-43
2023/07/30 12:08:07;;;;;;;5.65;2.30;;;;;;;;;;5087119;28;20064;-43
2023/07/30 12:10:33;;;;;;;;;;;;;;;;;;5087510;28;20056;-43
2023/07/30 12:12:59;;;;;;;7.88;1.80;;;;;;;;;;5087051;28;20100;-45
2023/07/30 12:15:37;;;;;;;7.28;2.33;;;;;;;;;;5086915;28;20040;-48
2023/07/30 12:18:03;;;;;;;9.10;2.55;;;;;;;;;;5086738;28;20040;-46
2023/07/30 12:20:30;;;;;;;6.47;1.58;;;;;;;;;;5062280;28;20095;-49
2023/07/30 12:22:57;;;;;;;3.13;1.70;;;;;;;;;;5046560;28;20049;-46
2023/07/30 12:25:24;;;;;;;7.95;1.85;;;;;;;;;;5046774;28;20333;-44
2023/07/30 12:27:50;;;;;;;4.47;2.05;;;28.90;99.90;;;;;;5046652;28;20256;-51
2023/07/30 12:30:17;;;;;;;6.13;1.70;;;;;;;;;;5046525;28;20037;-43
2023/07/30 12:32:44;;;;;;;5.75;1.67;;;;;;;;;;5046574;28;20198;-47
2023/07/30 12:35:10;;;;;;;6.13;1.70;;;;;;;;;;5046596;28;20053;-49
2023/07/30 12:37:37;;;;;;;5.88;1.73;;;;;;;;;;5046221;28;20033;-52
2023/07/30 12:40:04;;;;;;;6.55;1.67;;;;;;;;;;5046902;28;20017;-44
2023/07/30 12:42:32;;;;;;;7.55;1.42;;;;;;;;;;5046358;28;20029;-42
2023/07/30 12:44:59;;;;;;;2.88;1.40;;;;;;;;;;5058584;28;20329;-43
2023/07/30 12:47:25;;;;;;;5.13;1.63;;;;;;;;;;5086808;28;20069;-48
2023/07/30 12:49:52;;;;;;;4.40;1.60;;;;;;;;;;5086744;28;20117;-45
2023/07/30 12:52:19;;;;;;;3.33;1.30;;;;;;;;;;5085992;28;20359;-46
2023/07/30 12:54:46;;;;;;;3.33;1.27;;;;;;;;;;5086553;28;20032;-43
2023/07/30 12:57:12;;;;;;;3.72;1.17;;;;;;;;;;5086119;28;20032;-43
2023/07/30 12:59:39;;;;;;;7.55;1.35;;;;;;;;;;5086512;28;20028;-45
2023/07/30 13:02:06;;;;;;;3.97;1.30;;;;;;;;;;5085949;28;20032;-44
2023/07/30 13:04:33;;;;;;;3.97;1.30;;;;;;;;;;5086416;28;20070;-51
2023/07/30 13:06:59;;;;;;;2.40;1.02;;;;;;;;;;5085664;28;20097;-55
2023/07/30 13:09:26;;;;;;;2.90;1.23;;;;;;;;;;5072724;28;20084;-50
2023/07/30 13:11:53;;;;;;;4.65;1.52;;;;;;;;;;5066049;28;20032;-49
2023/07/30 13:14:19;;;;;;;3.53;1.48;;;;;;;;;;5066188;28;20041;-49
2023/07/30 13:16:46;;;;;;;4.78;1.45;;;;;;;;;;5065533;28;20079;-48
2023/07/30 13:19:13;;;;;;;3.25;1.80;;;;;;;;;;5066035;28;20020;-43
2023/07/30 13:21:39;;;;;;;4.78;1.40;;;;;;;;;;5069340;28;20096;-51
2023/07/30 13:24:06;;;;;;;4.40;1.48;;;;;;;;;;5086119;28;20051;-45
2023/07/30 13:26:33;;;;;;;7.10;1.63;;;;;;;;;;5085576;28;20047;-45
2023/07/30 13:28:59;;;;;;;6.07;1.77;;;;;;;;;;5085695;28;20235;-45
2023/07/30 13:31:26;;;;;;;4.55;1.55;;;;;;;;;;5085309;28;20031;-43
2023/07/30 13:33:53;;;;;;;7.70;1.80;;;;;;;;;;5085497;28;20028;-49
2023/07/30 13:36:19;;;;;;;5.50;1.50;;;;;;;;;;5085176;28;20060;-47
2023/07/30 13:38:46;;;;;;;8.82;2.08;;;;;;;;;;5084757;28;20201;-43
2023/07/30 13:41:13;;;;;;;9.07;1.70;;;;;;;;;;5085287;28;20032;-42
2023/07/30 13:43:39;;;;;;;4.57;1.35;;;;;;;;;;5085061;28;20355;-50
2023/07/30 13:46:06;;;;;;;4.80;1.17;;;;;;;;;;5085054;28;20024;-48
2023/07/30 13:48:33;;;;;;;5.28;1.52;;;;;;;;;;5085312;28;20344;-43
2023/07/30 13:50:59;;;;;;;6.18;1.10;;;;;;;;;;5084813;28;20051;-48
2023/07/30 13:53:26;;;;;;;3.70;1.10;;;;;;;;;;5084887;28;20299;-49
2023/07/30 13:55:53;;;;;;;4.63;1.20;;;;;;;;;;5079428;28;20220;-42
2023/07/30 13:58:20;;;;;;;2.83;1.20;;;;;;;;;;5064886;28;20102;-42
2023/07/30 14:00:46;;;;;;;3.55;1.27;;;;;;;;;;5064715;28;20017;-42
2023/07/30 14:03:13;;;;;;;2.67;1.20;;;;;;;;;;5064845;28;20256;-44
2023/07/30 14:05:40;;;;;;;7.65;1.23;;;;;;;;;;5064641;28;20041;-45
2023/07/30 14:08:06;;;;;;;2.45;1.05;;;;;;;;;;5064540;28;20021;-49
2023/07/30 14:10:33;;;;;;;4.07;1.10;;;;;;;;;;5064697;28;20265;-44
2023/07/30 14:12:59;;;;;;;6.95;1.20;;;;;;;;;;5064612;28;20033;-44
2023/07/30 14:15:26;;;;;;;3.33;1.20;;;;;;;;;;5064551;28;20096;-49
2023/07/30 14:17:54;;;;;;;4.30;1.50;;;;;;;;;;5066109;28;20028;-42
2023/07/30 14:20:20;;;;;;;2.70;1.10;;;;;;;;;;5065843;28;20096;-45
2023/07/30 14:22:49;;;;;;;3.15;1.10;;;;;;;;;;5064293;28;20248;-48
2023/07/30 14:25:16;;;;;;;2.22;1.05;;;;;;;;;;5064328;28;20078;-49
2023/07/30 14:27:42;;;;;;;2.95;1.10;;;;;;;;;;5064116;28;20032;-43
2023/07/30 14:30:09;;;;;;;3.83;1.10;;;;;;;;;;5061080;28;20028;-44